sensor_id;sensor_type;location;lat;lon;timestamp;pressure;altitude;pressure_sealevel;temperature;humidity
54806;BME280;62866;55.776;37.496;2023-07-29T00:00:44;98845.34;;;15.72;100.00
54806;BME280;62866;55.776;37.496;2023-07-29T00:03:10;98844.78;;;15.70;100.00
54806;BME280;62866;55.776;37.496;2023-07-29T00:05:39;98838.09;;;15.72;100.00
54806;BME280;62866;55.776;37.496;2023-07-29T00:08:05;98835.63;;;15.71;100.00
54806;BME280;62866;55.776;37.496;2023-07-29T00:10:31;98826.50;;;15.72;100.00
54806;BME280;62866;55.776;37.496;2023-07-29T00:12:57;98836.94;;;15.68;100.00
54806;BME280;62866;55.776;37.496;2023-07-29T00:15:23;98845.50;;;15.65;100.00
54806;BME280;62866;55.776;37.496;2023-07-29T00:17:48;98839.56;;;15.63;100.00
54806;BME280;62866;55.776;37.496;2023-07-29T00:20:14;98835.25;;;15.50;100.00
54806;BME280;62866;55.776;37.496;2023-07-29T00:22:40;98858.06;;;15.60;100.00
54806;BME280;62866;55.776;37.496;2023-07-29T00:25:06;98854.09;;;15.62;100.00
54806;BME280;62866;55.776;37.496;2023-07-29T00:27:32;98848.69;;;15.62;100.00
54806;BME280;62866;55.776;37.496;2023-07-29T00:29:57;98858.97;;;15.65;100.00
54806;BME280;62866;55.776;37.496;2023-07-29T00:32:22;98853.56;;;15.65;100.00
54806;BME280;62866;55.776;37.496;2023-07-29T00:34:48;98845.25;;;15.67;100.00
54806;BME280;62866;55.776;37.496;2023-07-29T00:37:13;98825.88;;;15.53;100.00
54806;BME280;62866;55.776;37.496;2023-07-29T00:39:39;98845.75;;;15.64;100.00
54806;BME280;62866;55.776;37.496;2023-07-29T00:42:05;98857.09;;;15.66;100.00
54806;BME280;62866;55.776;37.496;2023-07-29T00:44:30;98844.84;;;15.58;100.00
54806;BME280;62866;55.776;37.496;2023-07-29T00:47:00;98842.88;;;15.53;100.00
54806;BME280;62866;55.776;37.496;2023-07-29T00:49:27;98837.25;;;15.55;100.00
54806;BME280;62866;55.776;37.496;2023-07-29T00:51:53;98834.81;;;15.53;100.00
54806;BME280;62866;55.776;37.496;2023-07-29T00:54:19;98831.06;;;15.54;100.00
54806;BME280;62866;55.776;37.496;2023-07-29T00:56:44;98811.16;;;15.44;100.00
54806;BME280;62866;55.776;37.496;2023-07-29T00:59:10;98823.78;;;15.55;100.00
54806;BME280;62866;55.776;37.496;2023-07-29T01:01:36;98832.19;;;15.59;100.00
54806;BME280;62866;55.776;37.496;2023-07-29T01:04:02;98833.38;;;15.51;100.00
54806;BME280;62866;55.776;37.496;2023-07-29T01:06:29;98831.06;;;15.54;100.00
54806;BME280;62866;55.776;37.496;2023-07-29T01:09:05;98830.69;;;15.51;100.00
54806;BME280;62866;55.776;37.496;2023-07-29T01:11:33;98821.34;;;15.53;100.00
54806;BME280;62866;55.776;37.496;2023-07-29T01:14:11;98802.91;;;15.34;100.00
54806;BME280;62866;55.776;37.496;2023-07-29T01:16:52;98802.91;;;15.34;100.00
54806;BME280;62866;55.776;37.496;2023-07-29T01:19:59;98818.19;;;15.45;100.00
54806;BME280;62866;55.776;37.496;2023-07-29T01:22:28;98791.66;;;15.37;100.00
54806;BME280;62866;55.776;37.496;2023-07-29T01:24:54;98782.19;;;15.34;100.00
54806;BME280;62866;55.776;37.496;2023-07-29T01:27:20;98807.41;;;15.45;100.00
54806;BME280;62866;55.776;37.496;2023-07-29T01:29:45;98803.72;;;15.34;100.00
54806;BME280;62866;55.776;37.496;2023-07-29T01:32:16;98795.47;;;15.24;100.00
54806;BME280;62866;55.776;37.496;2023-07-29T01:34:50;98795.31;;;15.14;100.00
54806;BME280;62866;55.776;37.496;2023-07-29T01:37:22;98770.31;;;15.02;100.00
54806;BME280;62866;55.776;37.496;2023-07-29T01:39:54;98790.63;;;15.09;100.00
54806;BME280;62866;55.776;37.496;2023-07-29T01:42:22;98789.63;;;14.99;100.00
54806;BME280;62866;55.776;37.496;2023-07-29T01:44:48;98788.53;;;14.83;100.00
54806;BME280;62866;55.776;37.496;2023-07-29T01:47:14;98790.91;;;14.79;100.00
54806;BME280;62866;55.776;37.496;2023-07-29T01:49:39;98781.78;;;14.80;100.00
54806;BME280;62866;55.776;37.496;2023-07-29T01:52:05;98778.00;;;14.81;100.00
54806;BME280;62866;55.776;37.496;2023-07-29T01:54:30;98778.00;;;14.81;100.00
54806;BME280;62866;55.776;37.496;2023-07-29T01:56:56;98778.16;;;14.75;100.00
54806;BME280;62866;55.776;37.496;2023-07-29T01:59:21;98796.75;;;14.76;100.00
54806;BME280;62866;55.776;37.496;2023-07-29T02:01:47;98793.97;;;14.71;100.00
54806;BME280;62866;55.776;37.496;2023-07-29T02:04:14;98768.50;;;14.62;100.00
54806;BME280;62866;55.776;37.496;2023-07-29T02:06:39;98770.81;;;14.70;100.00
54806;BME280;62866;55.776;37.496;2023-07-29T02:09:05;98757.66;;;14.74;100.00
54806;BME280;62866;55.776;37.496;2023-07-29T02:11:30;98800.53;;;14.92;100.00
54806;BME280;62866;55.776;37.496;2023-07-29T02:13:56;98794.50;;;14.85;100.00
54806;BME280;62866;55.776;37.496;2023-07-29T02:16:22;98804.41;;;14.96;100.00
54806;BME280;62866;55.776;37.496;2023-07-29T02:18:49;98813.03;;;14.98;100.00
54806;BME280;62866;55.776;37.496;2023-07-29T02:21:17;98820.16;;;15.04;100.00
54806;BME280;62866;55.776;37.496;2023-07-29T02:23:42;98817.31;;;15.11;100.00
54806;BME280;62866;55.776;37.496;2023-07-29T02:26:08;98824.44;;;15.17;100.00
54806;BME280;62866;55.776;37.496;2023-07-29T02:28:33;98835.63;;;15.26;100.00
54806;BME280;62866;55.776;37.496;2023-07-29T02:31:13;98820.91;;;15.16;100.00
54806;BME280;62866;55.776;37.496;2023-07-29T02:33:39;98833.28;;;15.29;100.00
54806;BME280;62866;55.776;37.496;2023-07-29T02:36:05;98838.97;;;15.33;100.00
54806;BME280;62866;55.776;37.496;2023-07-29T02:38:30;98834.41;;;15.33;100.00
54806;BME280;62866;55.776;37.496;2023-07-29T02:40:56;98833.34;;;15.34;100.00
54806;BME280;62866;55.776;37.496;2023-07-29T02:43:21;98833.34;;;15.34;100.00
54806;BME280;62866;55.776;37.496;2023-07-29T02:45:47;98824.13;;;15.30;100.00
54806;BME280;62866;55.776;37.496;2023-07-29T02:48:12;98827.88;;;15.29;100.00
54806;BME280;62866;55.776;37.496;2023-07-29T02:50:38;98823.88;;;15.32;100.00
54806;BME280;62866;55.776;37.496;2023-07-29T02:53:03;98816.13;;;15.35;100.00
54806;BME280;62866;55.776;37.496;2023-07-29T02:55:29;98805.03;;;15.32;100.00
54806;BME280;62866;55.776;37.496;2023-07-29T02:57:54;98811.34;;;15.37;100.00
54806;BME280;62866;55.776;37.496;2023-07-29T03:00:19;98804.22;;;15.31;100.00
54806;BME280;62866;55.776;37.496;2023-07-29T03:02:45;98802.91;;;15.34;100.00
54806;BME280;62866;55.776;37.496;2023-07-29T03:05:11;98797.22;;;15.30;100.00
54806;BME280;62866;55.776;37.496;2023-07-29T03:07:36;98805.84;;;15.32;100.00
54806;BME280;62866;55.776;37.496;2023-07-29T03:10:02;98798.03;;;15.31;100.00
54806;BME280;62866;55.776;37.496;2023-07-29T03:12:27;98803.66;;;15.29;100.00
54806;BME280;62866;55.776;37.496;2023-07-29T03:14:53;98807.41;;;15.28;100.00
54806;BME280;62866;55.776;37.496;2023-07-29T03:17:18;98802.41;;;15.20;100.00
54806;BME280;62866;55.776;37.496;2023-07-29T03:19:44;98806.75;;;15.21;100.00
54806;BME280;62866;55.776;37.496;2023-07-29T03:22:09;98792.53;;;15.26;100.00
54806;BME280;62866;55.776;37.496;2023-07-29T03:24:35;98787.66;;;15.23;100.00
54806;BME280;62866;55.776;37.496;2023-07-29T03:27:04;98785.75;;;15.23;100.00
54806;BME280;62866;55.776;37.496;2023-07-29T03:29:30;98776.19;;;15.15;100.00
54806;BME280;62866;55.776;37.496;2023-07-29T03:31:56;98768.63;;;15.12;100.00
54806;BME280;62866;55.776;37.496;2023-07-29T03:34:21;98776.19;;;15.15;100.00
54806;BME280;62866;55.776;37.496;2023-07-29T03:36:47;98769.69;;;15.11;100.00
54806;BME280;62866;55.776;37.496;2023-07-29T03:39:14;98773.59;;;15.04;100.00
54806;BME280;62866;55.776;37.496;2023-07-29T03:41:39;98771.94;;;15.03;100.00
54806;BME280;62866;55.776;37.496;2023-07-29T03:44:05;98781.44;;;15.05;100.00
54806;BME280;62866;55.776;37.496;2023-07-29T03:46:31;98773.44;;;15.10;100.00
54806;BME280;62866;55.776;37.496;2023-07-29T03:48:56;98771.31;;;15.12;100.00
54806;BME280;62866;55.776;37.496;2023-07-29T03:51:22;98776.06;;;15.22;100.00
54806;BME280;62866;55.776;37.496;2023-07-29T03:53:50;98767.00;;;15.28;100.00
54806;BME280;62866;55.776;37.496;2023-07-29T03:56:15;98744.00;;;15.21;100.00
54806;BME280;62866;55.776;37.496;2023-07-29T03:58:41;98759.91;;;15.39;100.00
54806;BME280;62866;55.776;37.496;2023-07-29T04:01:07;98733.81;;;15.23;100.00
54806;BME280;62866;55.776;37.496;2023-07-29T04:03:33;98735.81;;;15.32;100.00
54806;BME280;62866;55.776;37.496;2023-07-29T04:05:59;98729.47;;;15.38;100.00
54806;BME280;62866;55.776;37.496;2023-07-29T04:08:26;98744.66;;;15.44;100.00
54806;BME280;62866;55.776;37.496;2023-07-29T04:10:51;98750.84;;;15.28;100.00
54806;BME280;62866;55.776;37.496;2023-07-29T04:13:17;98747.50;;;15.21;100.00
54806;BME280;62866;55.776;37.496;2023-07-29T04:15:42;98748.06;;;15.23;100.00
54806;BME280;62866;55.776;37.496;2023-07-29T04:18:08;98747.09;;;15.29;100.00
54806;BME280;62866;55.776;37.496;2023-07-29T04:20:33;98747.50;;;15.21;100.00
54806;BME280;62866;55.776;37.496;2023-07-29T04:22:59;98757.03;;;15.12;100.00
54806;BME280;62866;55.776;37.496;2023-07-29T04:25:25;98752.13;;;15.09;100.00
54806;BME280;62866;55.776;37.496;2023-07-29T04:27:50;98746.34;;;15.17;100.00
54806;BME280;62866;55.776;37.496;2023-07-29T04:30:16;98740.53;;;15.08;100.00
54806;BME280;62866;55.776;37.496;2023-07-29T04:32:41;98720.47;;;14.99;100.00
54806;BME280;62866;55.776;37.496;2023-07-29T04:35:08;98735.97;;;15.09;100.00
54806;BME280;62866;55.776;37.496;2023-07-29T04:37:34;98740.97;;;15.17;100.00
54806;BME280;62866;55.776;37.496;2023-07-29T04:39:59;98740.25;;;15.22;100.00
54806;BME280;62866;55.776;37.496;2023-07-29T04:42:25;98720.88;;;15.08;100.00
54806;BME280;62866;55.776;37.496;2023-07-29T04:44:50;98744.88;;;15.26;100.00
54806;BME280;62866;55.776;37.496;2023-07-29T04:47:16;98747.75;;;15.36;100.00
54806;BME280;62866;55.776;37.496;2023-07-29T04:49:42;98745.47;;;15.45;100.00
54806;BME280;62866;55.776;37.496;2023-07-29T04:52:07;98743.22;;;15.53;100.00
54806;BME280;62866;55.776;37.496;2023-07-29T04:54:33;98740.16;;;15.50;100.00
54806;BME280;62866;55.776;37.496;2023-07-29T04:56:59;98742.34;;;15.53;100.00
54806;BME280;62866;55.776;37.496;2023-07-29T04:59:24;98740.28;;;15.55;100.00
54806;BME280;62866;55.776;37.496;2023-07-29T05:01:50;98731.75;;;15.46;100.00
54806;BME280;62866;55.776;37.496;2023-07-29T05:04:15;98739.31;;;15.49;100.00
54806;BME280;62866;55.776;37.496;2023-07-29T05:06:41;98722.75;;;15.41;100.00
54806;BME280;62866;55.776;37.496;2023-07-29T05:09:17;98720.97;;;15.46;100.00
54806;BME280;62866;55.776;37.496;2023-07-29T05:11:43;98726.44;;;15.51;100.00
54806;BME280;62866;55.776;37.496;2023-07-29T05:14:17;98721.03;;;15.51;100.00
54806;BME280;62866;55.776;37.496;2023-07-29T05:16:43;98728.50;;;15.61;100.00
54806;BME280;62866;55.776;37.496;2023-07-29T05:19:09;98723.94;;;15.62;100.00
54806;BME280;62866;55.776;37.496;2023-07-29T05:21:35;98724.75;;;15.62;100.00
54806;BME280;62866;55.776;37.496;2023-07-29T05:24:00;98720.47;;;15.66;100.00
54806;BME280;62866;55.776;37.496;2023-07-29T05:26:26;98716.97;;;15.66;100.00
54806;BME280;62866;55.776;37.496;2023-07-29T05:28:52;98724.09;;;15.72;100.00
54806;BME280;62866;55.776;37.496;2023-07-29T05:31:17;98719.00;;;15.75;100.00
54806;BME280;62866;55.776;37.496;2023-07-29T05:33:43;98713.44;;;15.82;100.00
54806;BME280;62866;55.776;37.496;2023-07-29T05:36:08;98713.03;;;15.90;100.00
54806;BME280;62866;55.776;37.496;2023-07-29T05:38:34;98702.91;;;15.80;100.00
54806;BME280;62866;55.776;37.496;2023-07-29T05:40:59;98701.69;;;15.88;100.00
54806;BME280;62866;55.776;37.496;2023-07-29T05:43:26;98686.81;;;15.85;100.00
54806;BME280;62866;55.776;37.496;2023-07-29T05:45:52;98704.63;;;16.08;100.00
54806;BME280;62866;55.776;37.496;2023-07-29T05:48:19;98705.31;;;16.20;100.00
54806;BME280;62866;55.776;37.496;2023-07-29T05:50:45;98711.09;;;16.29;100.00
54806;BME280;62866;55.776;37.496;2023-07-29T05:53:10;98720.06;;;16.35;100.00
54806;BME280;62866;55.776;37.496;2023-07-29T05:55:36;98714.66;;;16.35;100.00
54806;BME280;62866;55.776;37.496;2023-07-29T05:58:01;98716.03;;;16.37;100.00
54806;BME280;62866;55.776;37.496;2023-07-29T06:00:27;98703.63;;;16.36;100.00
54806;BME280;62866;55.776;37.496;2023-07-29T06:02:52;98724.44;;;16.41;100.00
54806;BME280;62866;55.776;37.496;2023-07-29T06:05:18;98721.72;;;16.41;100.00
54806;BME280;62866;55.776;37.496;2023-07-29T06:07:43;98730.97;;;16.45;100.00
54806;BME280;62866;55.776;37.496;2023-07-29T06:10:14;98730.97;;;16.45;100.00
54806;BME280;62866;55.776;37.496;2023-07-29T06:12:42;98725.81;;;16.43;100.00
54806;BME280;62866;55.776;37.496;2023-07-29T06:15:08;98740.81;;;16.56;100.00
54806;BME280;62866;55.776;37.496;2023-07-29T06:17:34;98749.72;;;16.56;100.00
54806;BME280;62866;55.776;37.496;2023-07-29T06:20:00;98743.44;;;16.51;99.91
54806;BME280;62866;55.776;37.496;2023-07-29T06:22:25;98752.34;;;16.51;99.86
54806;BME280;62866;55.776;37.496;2023-07-29T06:24:51;98752.97;;;16.58;99.91
54806;BME280;62866;55.776;37.496;2023-07-29T06:27:16;98741.50;;;16.46;99.66
54806;BME280;62866;55.776;37.496;2023-07-29T06:29:41;98760.44;;;16.51;99.41
54806;BME280;62866;55.776;37.496;2023-07-29T06:32:07;98751.94;;;16.38;99.22
54806;BME280;62866;55.776;37.496;2023-07-29T06:34:33;98766.25;;;16.38;98.99
54806;BME280;62866;55.776;37.496;2023-07-29T06:36:58;98763.47;;;16.33;99.41
54806;BME280;62866;55.776;37.496;2023-07-29T06:39:23;98766.97;;;16.33;99.58
54806;BME280;62866;55.776;37.496;2023-07-29T06:41:49;98781.59;;;16.38;100.00
54806;BME280;62866;55.776;37.496;2023-07-29T06:44:14;98769.63;;;16.28;100.00
54806;BME280;62866;55.776;37.496;2023-07-29T06:46:40;98767.59;;;16.19;99.97
54806;BME280;62866;55.776;37.496;2023-07-29T06:49:05;98771.88;;;16.15;100.00
54806;BME280;62866;55.776;37.496;2023-07-29T06:51:31;98775.44;;;16.20;100.00
54806;BME280;62866;55.776;37.496;2023-07-29T06:54:00;98777.06;;;16.21;100.00
54806;BME280;62866;55.776;37.496;2023-07-29T06:56:26;98775.88;;;16.12;100.00
54806;BME280;62866;55.776;37.496;2023-07-29T06:58:51;98789.34;;;16.12;100.00
54806;BME280;62866;55.776;37.496;2023-07-29T07:01:17;98787.09;;;16.04;100.00
54806;BME280;62866;55.776;37.496;2023-07-29T07:03:42;98796.81;;;16.05;100.00
54806;BME280;62866;55.776;37.496;2023-07-29T07:06:08;98791.31;;;16.00;100.00
54806;BME280;62866;55.776;37.496;2023-07-29T07:08:34;98784.88;;;16.01;100.00
54806;BME280;62866;55.776;37.496;2023-07-29T07:10:59;98792.16;;;16.01;100.00
54806;BME280;62866;55.776;37.496;2023-07-29T07:13:25;98799.75;;;16.04;100.00
54806;BME280;62866;55.776;37.496;2023-07-29T07:15:50;98797.78;;;15.99;100.00
54806;BME280;62866;55.776;37.496;2023-07-29T07:18:17;98806.69;;;16.00;100.00
54806;BME280;62866;55.776;37.496;2023-07-29T07:20:42;98795.34;;;15.98;100.00
54806;BME280;62866;55.776;37.496;2023-07-29T07:23:08;98793.19;;;16.00;100.00
54806;BME280;62866;55.776;37.496;2023-07-29T07:25:37;98794.59;;;16.02;100.00
54806;BME280;62866;55.776;37.496;2023-07-29T07:28:02;98788.88;;;15.99;100.00
54806;BME280;62866;55.776;37.496;2023-07-29T07:30:28;98774.84;;;15.97;100.00
54806;BME280;62866;55.776;37.496;2023-07-29T07:32:53;98789.13;;;16.14;100.00
54806;BME280;62866;55.776;37.496;2023-07-29T07:35:19;98786.09;;;16.10;100.00
54806;BME280;62866;55.776;37.496;2023-07-29T07:37:45;98796.69;;;16.17;100.00
54806;BME280;62866;55.776;37.496;2023-07-29T07:40:10;98793.25;;;16.21;100.00
54806;BME280;62866;55.776;37.496;2023-07-29T07:42:36;98801.25;;;16.16;100.00
54806;BME280;62866;55.776;37.496;2023-07-29T07:45:02;98796.69;;;16.17;100.00
54806;BME280;62866;55.776;37.496;2023-07-29T07:47:27;98803.22;;;16.21;100.00
54806;BME280;62866;55.776;37.496;2023-07-29T07:49:53;98794.63;;;16.24;100.00
54806;BME280;62866;55.776;37.496;2023-07-29T07:52:18;98800.63;;;16.09;100.00
54806;BME280;62866;55.776;37.496;2023-07-29T07:54:44;98772.88;;;15.92;100.00
54806;BME280;62866;55.776;37.496;2023-07-29T07:57:09;98771.63;;;16.00;100.00
54806;BME280;62866;55.776;37.496;2023-07-29T07:59:35;98800.00;;;16.24;100.00
54806;BME280;62866;55.776;37.496;2023-07-29T08:02:00;98802.47;;;16.25;100.00
54806;BME280;62866;55.776;37.496;2023-07-29T08:04:26;98805.50;;;16.29;100.00
54806;BME280;62866;55.776;37.496;2023-07-29T08:06:51;98791.69;;;16.25;100.00
54806;BME280;62866;55.776;37.496;2023-07-29T08:09:17;98800.41;;;16.32;100.00
54806;BME280;62866;55.776;37.496;2023-07-29T08:11:42;98792.69;;;16.41;100.00
54806;BME280;62866;55.776;37.496;2023-07-29T08:14:08;98797.13;;;16.47;100.00
54806;BME280;62866;55.776;37.496;2023-07-29T08:16:33;98789.19;;;16.41;100.00
54806;BME280;62866;55.776;37.496;2023-07-29T08:18:59;98800.06;;;16.46;100.00
54806;BME280;62866;55.776;37.496;2023-07-29T08:21:26;98794.13;;;16.49;100.00
54806;BME280;62866;55.776;37.496;2023-07-29T08:23:52;98805.50;;;16.51;100.00
54806;BME280;62866;55.776;37.496;2023-07-29T08:26:17;98800.19;;;16.56;100.00
54806;BME280;62866;55.776;37.496;2023-07-29T08:28:43;98798.19;;;16.68;100.00
54806;BME280;62866;55.776;37.496;2023-07-29T08:31:08;98805.28;;;16.74;100.00
54806;BME280;62866;55.776;37.496;2023-07-29T08:33:34;98797.75;;;16.76;100.00
54806;BME280;62866;55.776;37.496;2023-07-29T08:36:00;98797.25;;;16.79;100.00
54806;BME280;62866;55.776;37.496;2023-07-29T08:38:26;98804.53;;;16.79;100.00
54806;BME280;62866;55.776;37.496;2023-07-29T08:43:36;98806.81;;;16.92;100.00
54806;BME280;62866;55.776;37.496;2023-07-29T08:46:03;98808.25;;;16.99;100.00
54806;BME280;62866;55.776;37.496;2023-07-29T08:48:35;98812.47;;;17.12;100.00
54806;BME280;62866;55.776;37.496;2023-07-29T08:51:03;98799.06;;;17.22;100.00
54806;BME280;62866;55.776;37.496;2023-07-29T08:53:29;98799.88;;;17.23;100.00
54806;BME280;62866;55.776;37.496;2023-07-29T08:55:56;98808.94;;;17.12;100.00
54806;BME280;62866;55.776;37.496;2023-07-29T08:58:22;98798.47;;;16.93;100.00
54806;BME280;62866;55.776;37.496;2023-07-29T09:00:49;98803.06;;;16.93;100.00
54806;BME280;62866;55.776;37.496;2023-07-29T09:03:15;98801.50;;;16.75;100.00
54806;BME280;62866;55.776;37.496;2023-07-29T09:05:41;98779.66;;;16.55;100.00
54806;BME280;62866;55.776;37.496;2023-07-29T09:08:06;98800.59;;;16.64;100.00
54806;BME280;62866;55.776;37.496;2023-07-29T09:10:36;98800.09;;;16.51;100.00
54806;BME280;62866;55.776;37.496;2023-07-29T09:13:03;98791.63;;;16.42;100.00
54806;BME280;62866;55.776;37.496;2023-07-29T09:15:30;98791.25;;;16.33;100.00
54806;BME280;62866;55.776;37.496;2023-07-29T09:17:59;98802.03;;;16.33;100.00
54806;BME280;62866;55.776;37.496;2023-07-29T09:20:27;98804.69;;;16.28;100.00
54806;BME280;62866;55.776;37.496;2023-07-29T09:22:54;98794.56;;;16.19;100.00
54806;BME280;62866;55.776;37.496;2023-07-29T09:25:25;98799.91;;;16.14;100.00
54806;BME280;62866;55.776;37.496;2023-07-29T09:27:51;98797.75;;;16.16;100.00
54806;BME280;62866;55.776;37.496;2023-07-29T09:30:17;98801.03;;;16.18;100.00
54806;BME280;62866;55.776;37.496;2023-07-29T09:32:42;98807.31;;;16.23;100.00
54806;BME280;62866;55.776;37.496;2023-07-29T09:35:17;98807.56;;;16.22;100.00
54806;BME280;62866;55.776;37.496;2023-07-29T09:37:43;98808.94;;;16.24;100.00
54806;BME280;62866;55.776;37.496;2023-07-29T09:40:14;98807.69;;;16.32;100.00
54806;BME280;62866;55.776;37.496;2023-07-29T09:42:47;98811.13;;;16.49;100.00
54806;BME280;62866;55.776;37.496;2023-07-29T09:45:19;98809.59;;;16.53;100.00
54806;BME280;62866;55.776;37.496;2023-07-29T09:47:46;98809.25;;;16.50;100.00
54806;BME280;62866;55.776;37.496;2023-07-29T09:50:12;98790.13;;;16.29;100.00
54806;BME280;62866;55.776;37.496;2023-07-29T09:52:38;98816.03;;;16.30;100.00
54806;BME280;62866;55.776;37.496;2023-07-29T09:55:04;98792.94;;;16.18;100.00
54806;BME280;62866;55.776;37.496;2023-07-29T09:57:31;98826.31;;;16.33;100.00
54806;BME280;62866;55.776;37.496;2023-07-29T09:59:58;98821.09;;;16.27;100.00
54806;BME280;62866;55.776;37.496;2023-07-29T10:02:23;98817.13;;;16.13;100.00
54806;BME280;62866;55.776;37.496;2023-07-29T10:04:52;98825.22;;;16.13;100.00
54806;BME280;62866;55.776;37.496;2023-07-29T10:07:18;98814.25;;;16.19;100.00
54806;BME280;62866;55.776;37.496;2023-07-29T10:09:45;98820.63;;;16.30;100.00
54806;BME280;62866;55.776;37.496;2023-07-29T10:12:11;98809.97;;;16.40;100.00
54806;BME280;62866;55.776;37.496;2023-07-29T10:14:41;98814.78;;;16.60;100.00
54806;BME280;62866;55.776;37.496;2023-07-29T10:17:08;98815.53;;;16.72;100.00
54806;BME280;62866;55.776;37.496;2023-07-29T10:19:34;98813.69;;;16.78;100.00
54806;BME280;62866;55.776;37.496;2023-07-29T10:22:03;98818.16;;;16.89;100.00
54806;BME280;62866;55.776;37.496;2023-07-29T10:24:32;98825.34;;;17.05;100.00
54806;BME280;62866;55.776;37.496;2023-07-29T10:27:00;98830.75;;;17.05;100.00
54806;BME280;62866;55.776;37.496;2023-07-29T10:29:31;98826.66;;;17.02;100.00
54806;BME280;62866;55.776;37.496;2023-07-29T10:32:01;98804.41;;;16.90;100.00
54806;BME280;62866;55.776;37.496;2023-07-29T10:34:29;98826.63;;;16.97;100.00
54806;BME280;62866;55.776;37.496;2023-07-29T10:36:55;98836.97;;;17.05;100.00
54806;BME280;62866;55.776;37.496;2023-07-29T10:39:21;98833.66;;;16.98;100.00
54806;BME280;62866;55.776;37.496;2023-07-29T10:42:02;98824.63;;;16.88;100.00
54806;BME280;62866;55.776;37.496;2023-07-29T10:49:43;98824.25;;;16.79;100.00
54806;BME280;62866;55.776;37.496;2023-07-29T10:52:13;98817.78;;;16.80;100.00
54806;BME280;62866;55.776;37.496;2023-07-29T10:54:46;98822.03;;;16.76;100.00
54806;BME280;62866;55.776;37.496;2023-07-29T10:57:30;98815.13;;;16.85;100.00
54806;BME280;62866;55.776;37.496;2023-07-29T10:59:56;98810.53;;;16.86;100.00
54806;BME280;62866;55.776;37.496;2023-07-29T11:02:32;98802.94;;;16.83;100.00
54806;BME280;62866;55.776;37.496;2023-07-29T11:04:58;98817.38;;;16.93;100.00
54806;BME280;62866;55.776;37.496;2023-07-29T11:07:27;98788.34;;;16.79;100.00
54806;BME280;62866;55.776;37.496;2023-07-29T11:12:35;98820.94;;;16.99;100.00
54806;BME280;62866;55.776;37.496;2023-07-29T11:15:11;98815.91;;;17.07;100.00
54806;BME280;62866;55.776;37.496;2023-07-29T11:20:08;98821.13;;;17.14;100.00
54806;BME280;62866;55.776;37.496;2023-07-29T11:22:34;98825.50;;;17.20;100.00
54806;BME280;62866;55.776;37.496;2023-07-29T11:24:59;98818.59;;;17.34;100.00
54806;BME280;62866;55.776;37.496;2023-07-29T11:27:25;98812.25;;;17.45;100.00
54806;BME280;62866;55.776;37.496;2023-07-29T11:29:59;98799.00;;;17.49;100.00
54806;BME280;62866;55.776;37.496;2023-07-29T11:32:25;98824.41;;;17.75;99.91
54806;BME280;62866;55.776;37.496;2023-07-29T11:34:51;98819.00;;;17.75;99.51
54806;BME280;62866;55.776;37.496;2023-07-29T11:37:17;98822.78;;;17.74;96.95
54806;BME280;62866;55.776;37.496;2023-07-29T11:39:44;98839.59;;;17.81;97.80
54806;BME280;62866;55.776;37.496;2023-07-29T11:42:16;98853.41;;;17.85;97.96
54806;BME280;62866;55.776;37.496;2023-07-29T11:44:42;98847.75;;;17.86;98.39
54806;BME280;62866;55.776;37.496;2023-07-29T11:47:12;98856.44;;;17.88;98.76
54806;BME280;62866;55.776;37.496;2023-07-29T11:49:39;98855.34;;;17.89;98.65
54806;BME280;62866;55.776;37.496;2023-07-29T11:52:09;98858.34;;;17.93;98.50
54806;BME280;62866;55.776;37.496;2023-07-29T11:54:35;98854.78;;;17.87;98.43
54806;BME280;62866;55.776;37.496;2023-07-29T11:57:05;98855.78;;;17.76;98.15
54806;BME280;62866;55.776;37.496;2023-07-29T11:59:32;98850.03;;;17.67;98.13
54806;BME280;62866;55.776;37.496;2023-07-29T12:02:00;98859.00;;;17.73;98.27
54806;BME280;62866;55.776;37.496;2023-07-29T12:04:26;98861.91;;;17.66;98.17
54806;BME280;62866;55.776;37.496;2023-07-29T12:06:51;98867.03;;;17.63;98.24
54806;BME280;62866;55.776;37.496;2023-07-29T12:09:17;98856.69;;;17.60;98.34
54806;BME280;62866;55.776;37.496;2023-07-29T12:11:44;98857.47;;;17.55;97.98
54806;BME280;62866;55.776;37.496;2023-07-29T12:14:09;98859.09;;;17.56;98.43
54806;BME280;62866;55.776;37.496;2023-07-29T12:16:43;98857.75;;;17.59;98.50
54806;BME280;62866;55.776;37.496;2023-07-29T12:19:12;98861.09;;;17.66;98.82
54806;BME280;62866;55.776;37.496;2023-07-29T12:21:38;98842.88;;;17.56;98.69
54806;BME280;62866;55.776;37.496;2023-07-29T12:24:04;98857.06;;;17.68;98.35
54806;BME280;62866;55.776;37.496;2023-07-29T12:26:30;98845.44;;;17.68;98.07
54806;BME280;62866;55.776;37.496;2023-07-29T12:28:55;98850.03;;;17.67;98.51
54806;BME280;62866;55.776;37.496;2023-07-29T12:31:22;98838.69;;;17.70;98.79
54806;BME280;62866;55.776;37.496;2023-07-29T12:33:56;98844.41;;;17.74;98.94
54806;BME280;62866;55.776;37.496;2023-07-29T12:36:21;98820.72;;;17.59;98.35
54806;BME280;62866;55.776;37.496;2023-07-29T12:38:47;98852.69;;;17.62;98.02
54806;BME280;62866;55.776;37.496;2023-07-29T12:41:12;98837.72;;;17.55;98.52
54806;BME280;62866;55.776;37.496;2023-07-29T12:43:38;98847.16;;;17.52;98.94
54806;BME280;62866;55.776;37.496;2023-07-29T12:46:04;98853.38;;;17.53;99.30
54806;BME280;62866;55.776;37.496;2023-07-29T12:48:29;98846.09;;;17.53;99.21
54806;BME280;62866;55.776;37.496;2023-07-29T12:50:55;98836.53;;;17.40;99.06